sensor_id;sensor_type;location;lat;lon;timestamp;P1;durP1;ratioP1;P2;durP2;ratioP2
4055;SDS011;2043;52.184;8.690;2023-07-13T00:01:31;6.90;;;3.50;;
4055;SDS011;2043;52.184;8.690;2023-07-13T00:03:58;12.13;;;3.77;;
4055;SDS011;2043;52.184;8.690;2023-07-13T00:06:26;9.80;;;3.37;;
4055;SDS011;2043;52.184;8.690;2023-07-13T00:08:56;6.67;;;3.10;;
4055;SDS011;2043;52.184;8.690;2023-07-13T00:11:23;8.87;;;3.40;;
4055;SDS011;2043;52.184;8.690;2023-07-13T00:13:50;9.60;;;3.80;;
4055;SDS011;2043;52.184;8.690;2023-07-13T00:16:17;12.03;;;3.00;;
4055;SDS011;2043;52.184;8.690;2023-07-13T00:18:45;8.93;;;3.30;;
4055;SDS011;2043;52.184;8.690;2023-07-13T00:21:13;6.87;;;3.00;;
4055;SDS011;2043;52.184;8.690;2023-07-13T00:23:41;9.60;;;3.87;;
4055;SDS011;2043;52.184;8.690;2023-07-13T00:26:10;13.73;;;4.60;;
4055;SDS011;2043;52.184;8.690;2023-07-13T00:28:39;7.73;;;3.60;;
4055;SDS011;2043;52.184;8.690;2023-07-13T00:31:08;7.40;;;3.37;;
4055;SDS011;2043;52.184;8.690;2023-07-13T00:33:36;6.83;;;2.73;;
4055;SDS011;2043;52.184;8.690;2023-07-13T00:36:03;8.67;;;3.30;;
4055;SDS011;2043;52.184;8.690;2023-07-13T00:38:31;8.20;;;3.33;;
4055;SDS011;2043;52.184;8.690;2023-07-13T00:40:58;9.70;;;4.17;;
4055;SDS011;2043;52.184;8.690;2023-07-13T00:43:27;8.60;;;4.07;;
4055;SDS011;2043;52.184;8.690;2023-07-13T00:46:14;13.03;;;3.63;;
4055;SDS011;2043;52.184;8.690;2023-07-13T00:49:02;7.60;;;4.80;;
4055;SDS011;2043;52.184;8.690;2023-07-13T00:54:38;10.40;;;4.13;;
4055;SDS011;2043;52.184;8.690;2023-07-13T00:57:17;7.70;;;4.10;;
4055;SDS011;2043;52.184;8.690;2023-07-13T00:59:54;8.67;;;3.50;;
4055;SDS011;2043;52.184;8.690;2023-07-13T01:02:33;18.30;;;3.80;;
4055;SDS011;2043;52.184;8.690;2023-07-13T01:05:10;9.77;;;3.40;;
4055;SDS011;2043;52.184;8.690;2023-07-13T01:07:37;10.37;;;3.63;;
4055;SDS011;2043;52.184;8.690;2023-07-13T01:10:04;10.30;;;3.60;;
4055;SDS011;2043;52.184;8.690;2023-07-13T01:12:32;7.27;;;3.63;;
4055;SDS011;2043;52.184;8.690;2023-07-13T01:14:59;7.70;;;3.27;;
4055;SDS011;2043;52.184;8.690;2023-07-13T01:17:28;6.60;;;3.57;;
4055;SDS011;2043;52.184;8.690;2023-07-13T01:19:55;6.47;;;3.53;;
4055;SDS011;2043;52.184;8.690;2023-07-13T01:22:22;10.13;;;4.30;;
4055;SDS011;2043;52.184;8.690;2023-07-13T01:24:52;9.60;;;4.17;;
4055;SDS011;2043;52.184;8.690;2023-07-13T01:27:21;7.40;;;3.77;;
4055;SDS011;2043;52.184;8.690;2023-07-13T01:30:01;11.33;;;3.70;;
4055;SDS011;2043;52.184;8.690;2023-07-13T01:32:38;13.50;;;3.43;;
4055;SDS011;2043;52.184;8.690;2023-07-13T01:35:08;9.10;;;3.63;;
4055;SDS011;2043;52.184;8.690;2023-07-13T01:37:34;6.63;;;3.40;;
4055;SDS011;2043;52.184;8.690;2023-07-13T01:40:03;7.43;;;3.47;;
4055;SDS011;2043;52.184;8.690;2023-07-13T01:42:30;9.50;;;3.00;;
4055;SDS011;2043;52.184;8.690;2023-07-13T01:44:57;17.13;;;3.50;;
4055;SDS011;2043;52.184;8.690;2023-07-13T01:47:24;10.70;;;3.27;;
4055;SDS011;2043;52.184;8.690;2023-07-13T01:49:52;14.53;;;4.17;;
4055;SDS011;2043;52.184;8.690;2023-07-13T01:52:19;6.40;;;3.50;;
4055;SDS011;2043;52.184;8.690;2023-07-13T01:54:46;10.27;;;3.90;;
4055;SDS011;2043;52.184;8.690;2023-07-13T01:57:24;8.40;;;3.40;;
4055;SDS011;2043;52.184;8.690;2023-07-13T02:00:00;10.30;;;3.53;;
4055;SDS011;2043;52.184;8.690;2023-07-13T02:02:31;12.33;;;4.20;;
4055;SDS011;2043;52.184;8.690;2023-07-13T02:04:58;10.13;;;3.57;;
4055;SDS011;2043;52.184;8.690;2023-07-13T02:07:25;9.30;;;3.73;;
4055;SDS011;2043;52.184;8.690;2023-07-13T02:09:51;8.20;;;3.50;;
4055;SDS011;2043;52.184;8.690;2023-07-13T02:12:18;9.73;;;3.37;;
4055;SDS011;2043;52.184;8.690;2023-07-13T02:14:45;7.83;;;3.73;;
4055;SDS011;2043;52.184;8.690;2023-07-13T02:17:13;10.80;;;3.73;;
4055;SDS011;2043;52.184;8.690;2023-07-13T02:19:39;9.53;;;3.40;;
4055;SDS011;2043;52.184;8.690;2023-07-13T02:22:06;7.20;;;3.70;;
4055;SDS011;2043;52.184;8.690;2023-07-13T02:24:33;8.93;;;3.60;;
4055;SDS011;2043;52.184;8.690;2023-07-13T02:27:00;10.13;;;3.37;;
4055;SDS011;2043;52.184;8.690;2023-07-13T02:29:27;14.13;;;3.40;;
4055;SDS011;2043;52.184;8.690;2023-07-13T02:31:54;9.53;;;3.27;;
4055;SDS011;2043;52.184;8.690;2023-07-13T02:34:21;12.77;;;3.37;;
4055;SDS011;2043;52.184;8.690;2023-07-13T02:36:47;9.03;;;3.43;;
4055;SDS011;2043;52.184;8.690;2023-07-13T02:39:14;11.77;;;3.20;;
4055;SDS011;2043;52.184;8.690;2023-07-13T02:41:41;10.10;;;3.53;;
4055;SDS011;2043;52.184;8.690;2023-07-13T02:44:08;11.90;;;4.13;;
4055;SDS011;2043;52.184;8.690;2023-07-13T02:46:36;13.93;;;3.67;;
4055;SDS011;2043;52.184;8.690;2023-07-13T02:49:03;10.13;;;3.80;;
4055;SDS011;2043;52.184;8.690;2023-07-13T02:51:30;8.07;;;3.60;;
4055;SDS011;2043;52.184;8.690;2023-07-13T02:54:03;14.73;;;3.47;;
4055;SDS011;2043;52.184;8.690;2023-07-13T02:56:31;11.47;;;3.70;;
4055;SDS011;2043;52.184;8.690;2023-07-13T02:58:58;19.03;;;4.60;;
4055;SDS011;2043;52.184;8.690;2023-07-13T03:01:25;13.93;;;4.50;;
4055;SDS011;2043;52.184;8.690;2023-07-13T03:03:52;10.27;;;4.00;;
4055;SDS011;2043;52.184;8.690;2023-07-13T03:06:19;11.23;;;4.00;;
4055;SDS011;2043;52.184;8.690;2023-07-13T03:08:47;13.07;;;4.30;;
4055;SDS011;2043;52.184;8.690;2023-07-13T03:11:17;8.83;;;3.80;;
4055;SDS011;2043;52.184;8.690;2023-07-13T03:13:45;13.93;;;4.13;;
4055;SDS011;2043;52.184;8.690;2023-07-13T03:16:12;12.03;;;3.93;;
4055;SDS011;2043;52.184;8.690;2023-07-13T03:18:45;25.40;;;5.20;;
4055;SDS011;2043;52.184;8.690;2023-07-13T03:21:13;11.17;;;4.00;;
4055;SDS011;2043;52.184;8.690;2023-07-13T03:23:40;17.30;;;4.20;;
4055;SDS011;2043;52.184;8.690;2023-07-13T03:26:08;16.27;;;4.43;;
4055;SDS011;2043;52.184;8.690;2023-07-13T03:28:40;15.43;;;4.17;;
4055;SDS011;2043;52.184;8.690;2023-07-13T03:31:08;13.10;;;3.50;;
4055;SDS011;2043;52.184;8.690;2023-07-13T03:33:46;22.93;;;4.00;;
4055;SDS011;2043;52.184;8.690;2023-07-13T03:36:16;12.73;;;4.13;;
4055;SDS011;2043;52.184;8.690;2023-07-13T03:39:03;14.30;;;3.83;;
4055;SDS011;2043;52.184;8.690;2023-07-13T03:41:32;9.80;;;4.43;;
4055;SDS011;2043;52.184;8.690;2023-07-13T03:43:59;12.70;;;4.23;;
4055;SDS011;2043;52.184;8.690;2023-07-13T03:46:26;10.20;;;4.10;;
4055;SDS011;2043;52.184;8.690;2023-07-13T03:48:53;9.00;;;4.03;;
4055;SDS011;2043;52.184;8.690;2023-07-13T03:51:20;15.93;;;4.10;;
4055;SDS011;2043;52.184;8.690;2023-07-13T03:53:47;13.67;;;4.53;;
4055;SDS011;2043;52.184;8.690;2023-07-13T03:56:15;13.23;;;4.20;;
4055;SDS011;2043;52.184;8.690;2023-07-13T03:58:43;15.70;;;4.73;;
4055;SDS011;2043;52.184;8.690;2023-07-13T04:01:15;12.53;;;3.93;;
4055;SDS011;2043;52.184;8.690;2023-07-13T04:03:43;11.93;;;3.90;;
4055;SDS011;2043;52.184;8.690;2023-07-13T04:06:14;12.10;;;4.43;;
4055;SDS011;2043;52.184;8.690;2023-07-13T04:08:53;12.73;;;3.93;;
4055;SDS011;2043;52.184;8.690;2023-07-13T04:11:24;14.63;;;4.10;;
4055;SDS011;2043;52.184;8.690;2023-07-13T04:13:53;11.90;;;3.90;;
4055;SDS011;2043;52.184;8.690;2023-07-13T04:16:20;10.17;;;3.80;;
4055;SDS011;2043;52.184;8.690;2023-07-13T04:18:48;13.13;;;4.40;;
4055;SDS011;2043;52.184;8.690;2023-07-13T04:21:15;11.03;;;3.67;;
4055;SDS011;2043;52.184;8.690;2023-07-13T04:23:42;9.57;;;3.60;;
4055;SDS011;2043;52.184;8.690;2023-07-13T04:26:10;15.00;;;4.97;;
4055;SDS011;2043;52.184;8.690;2023-07-13T04:28:38;8.50;;;4.13;;
4055;SDS011;2043;52.184;8.690;2023-07-13T04:31:04;13.60;;;4.83;;
4055;SDS011;2043;52.184;8.690;2023-07-13T04:33:32;15.50;;;4.30;;
4055;SDS011;2043;52.184;8.690;2023-07-13T04:35:58;14.73;;;5.00;;
4055;SDS011;2043;52.184;8.690;2023-07-13T04:38:26;12.77;;;4.43;;
4055;SDS011;2043;52.184;8.690;2023-07-13T04:40:56;20.80;;;4.20;;
4055;SDS011;2043;52.184;8.690;2023-07-13T04:43:24;11.00;;;4.07;;
4055;SDS011;2043;52.184;8.690;2023-07-13T04:45:52;13.20;;;4.63;;
4055;SDS011;2043;52.184;8.690;2023-07-13T04:48:19;13.47;;;4.17;;
4055;SDS011;2043;52.184;8.690;2023-07-13T04:50:47;12.70;;;4.97;;
4055;SDS011;2043;52.184;8.690;2023-07-13T04:53:20;13.67;;;4.60;;
4055;SDS011;2043;52.184;8.690;2023-07-13T04:55:47;13.70;;;4.47;;
4055;SDS011;2043;52.184;8.690;2023-07-13T04:58:14;13.60;;;4.70;;
4055;SDS011;2043;52.184;8.690;2023-07-13T05:00:41;18.90;;;4.30;;
4055;SDS011;2043;52.184;8.690;2023-07-13T05:03:08;13.13;;;4.33;;
4055;SDS011;2043;52.184;8.690;2023-07-13T05:05:35;15.07;;;4.00;;
4055;SDS011;2043;52.184;8.690;2023-07-13T05:08:01;12.93;;;3.70;;
4055;SDS011;2043;52.184;8.690;2023-07-13T05:10:29;12.63;;;3.80;;
4055;SDS011;2043;52.184;8.690;2023-07-13T05:12:55;12.07;;;3.50;;
4055;SDS011;2043;52.184;8.690;2023-07-13T05:15:23;12.23;;;3.60;;
4055;SDS011;2043;52.184;8.690;2023-07-13T05:17:50;11.80;;;3.40;;
4055;SDS011;2043;52.184;8.690;2023-07-13T05:20:17;8.27;;;3.43;;
4055;SDS011;2043;52.184;8.690;2023-07-13T05:22:45;9.90;;;3.00;;
4055;SDS011;2043;52.184;8.690;2023-07-13T05:25:15;9.40;;;3.30;;
4055;SDS011;2043;52.184;8.690;2023-07-13T05:27:42;11.53;;;3.70;;
4055;SDS011;2043;52.184;8.690;2023-07-13T05:30:12;16.97;;;3.80;;
4055;SDS011;2043;52.184;8.690;2023-07-13T05:32:39;14.60;;;3.23;;
4055;SDS011;2043;52.184;8.690;2023-07-13T05:35:06;24.93;;;3.67;;
4055;SDS011;2043;52.184;8.690;2023-07-13T05:37:33;11.20;;;3.07;;
4055;SDS011;2043;52.184;8.690;2023-07-13T05:40:00;9.37;;;3.03;;
4055;SDS011;2043;52.184;8.690;2023-07-13T05:42:27;10.77;;;3.00;;
4055;SDS011;2043;52.184;8.690;2023-07-13T05:44:54;9.80;;;3.30;;
4055;SDS011;2043;52.184;8.690;2023-07-13T05:47:21;15.17;;;3.50;;
4055;SDS011;2043;52.184;8.690;2023-07-13T05:49:48;10.90;;;3.27;;
4055;SDS011;2043;52.184;8.690;2023-07-13T05:52:15;8.23;;;2.70;;
4055;SDS011;2043;52.184;8.690;2023-07-13T05:54:42;14.17;;;3.07;;
4055;SDS011;2043;52.184;8.690;2023-07-13T05:57:08;13.73;;;3.00;;
4055;SDS011;2043;52.184;8.690;2023-07-13T05:59:35;13.93;;;3.20;;
4055;SDS011;2043;52.184;8.690;2023-07-13T06:02:03;13.90;;;2.97;;
4055;SDS011;2043;52.184;8.690;2023-07-13T06:04:30;10.23;;;3.50;;
4055;SDS011;2043;52.184;8.690;2023-07-13T06:06:56;15.43;;;3.43;;
4055;SDS011;2043;52.184;8.690;2023-07-13T06:09:23;14.67;;;3.87;;
4055;SDS011;2043;52.184;8.690;2023-07-13T06:11:50;7.27;;;2.80;;
4055;SDS011;2043;52.184;8.690;2023-07-13T06:14:17;17.23;;;3.13;;
4055;SDS011;2043;52.184;8.690;2023-07-13T06:16:43;14.10;;;3.63;;
4055;SDS011;2043;52.184;8.690;2023-07-13T06:19:11;14.80;;;3.50;;
4055;SDS011;2043;52.184;8.690;2023-07-13T06:21:38;9.50;;;3.00;;
4055;SDS011;2043;52.184;8.690;2023-07-13T06:24:05;17.50;;;3.23;;
4055;SDS011;2043;52.184;8.690;2023-07-13T06:26:32;11.00;;;3.13;;
4055;SDS011;2043;52.184;8.690;2023-07-13T06:28:58;16.20;;;3.10;;
4055;SDS011;2043;52.184;8.690;2023-07-13T06:31:25;8.10;;;3.27;;
4055;SDS011;2043;52.184;8.690;2023-07-13T06:33:52;8.80;;;3.20;;
4055;SDS011;2043;52.184;8.690;2023-07-13T06:36:19;20.63;;;3.87;;
4055;SDS011;2043;52.184;8.690;2023-07-13T06:38:46;12.10;;;3.20;;
4055;SDS011;2043;52.184;8.690;2023-07-13T06:41:13;12.87;;;3.50;;
4055;SDS011;2043;52.184;8.690;2023-07-13T06:43:40;8.60;;;2.77;;
4055;SDS011;2043;52.184;8.690;2023-07-13T06:46:07;14.90;;;4.23;;
4055;SDS011;2043;52.184;8.690;2023-07-13T06:48:34;18.60;;;4.30;;
4055;SDS011;2043;52.184;8.690;2023-07-13T06:51:02;15.23;;;3.73;;
4055;SDS011;2043;52.184;8.690;2023-07-13T06:53:29;9.60;;;3.50;;
4055;SDS011;2043;52.184;8.690;2023-07-13T06:55:56;15.03;;;3.73;;
4055;SDS011;2043;52.184;8.690;2023-07-13T06:58:23;12.83;;;3.87;;
4055;SDS011;2043;52.184;8.690;2023-07-13T07:00:50;15.23;;;4.07;;
4055;SDS011;2043;52.184;8.690;2023-07-13T07:03:18;10.63;;;3.60;;
4055;SDS011;2043;52.184;8.690;2023-07-13T07:05:46;14.40;;;4.13;;
4055;SDS011;2043;52.184;8.690;2023-07-13T07:08:12;10.70;;;4.07;;
4055;SDS011;2043;52.184;8.690;2023-07-13T07:10:40;14.30;;;3.77;;
4055;SDS011;2043;52.184;8.690;2023-07-13T07:13:06;12.13;;;3.93;;
4055;SDS011;2043;52.184;8.690;2023-07-13T07:15:34;11.73;;;4.10;;
4055;SDS011;2043;52.184;8.690;2023-07-13T07:18:01;12.90;;;3.63;;
4055;SDS011;2043;52.184;8.690;2023-07-13T07:20:29;16.93;;;3.90;;
4055;SDS011;2043;52.184;8.690;2023-07-13T07:22:56;10.67;;;3.60;;
4055;SDS011;2043;52.184;8.690;2023-07-13T07:25:23;17.50;;;4.30;;
4055;SDS011;2043;52.184;8.690;2023-07-13T07:27:50;13.00;;;3.87;;
4055;SDS011;2043;52.184;8.690;2023-07-13T07:30:20;11.40;;;4.07;;
4055;SDS011;2043;52.184;8.690;2023-07-13T07:32:50;15.40;;;4.70;;
4055;SDS011;2043;52.184;8.690;2023-07-13T07:35:19;13.27;;;4.10;;
4055;SDS011;2043;52.184;8.690;2023-07-13T07:37:46;12.63;;;3.87;;
4055;SDS011;2043;52.184;8.690;2023-07-13T07:40:16;16.83;;;4.10;;
4055;SDS011;2043;52.184;8.690;2023-07-13T07:42:47;30.60;;;3.80;;
4055;SDS011;2043;52.184;8.690;2023-07-13T07:45:14;16.07;;;4.37;;
4055;SDS011;2043;52.184;8.690;2023-07-13T07:47:41;13.53;;;4.80;;
4055;SDS011;2043;52.184;8.690;2023-07-13T07:50:08;15.67;;;4.50;;
4055;SDS011;2043;52.184;8.690;2023-07-13T07:52:35;10.03;;;4.10;;
4055;SDS011;2043;52.184;8.690;2023-07-13T07:55:04;12.63;;;5.43;;
4055;SDS011;2043;52.184;8.690;2023-07-13T07:57:34;9.93;;;4.00;;
4055;SDS011;2043;52.184;8.690;2023-07-13T08:00:04;12.27;;;4.30;;
4055;SDS011;2043;52.184;8.690;2023-07-13T08:02:35;11.83;;;4.03;;
4055;SDS011;2043;52.184;8.690;2023-07-13T08:05:04;12.07;;;4.60;;
4055;SDS011;2043;52.184;8.690;2023-07-13T08:07:35;15.80;;;4.47;;
4055;SDS011;2043;52.184;8.690;2023-07-13T08:10:05;16.07;;;4.70;;
4055;SDS011;2043;52.184;8.690;2023-07-13T08:12:37;13.73;;;4.90;;
4055;SDS011;2043;52.184;8.690;2023-07-13T08:15:09;8.30;;;3.50;;
4055;SDS011;2043;52.184;8.690;2023-07-13T08:17:38;21.10;;;4.27;;
4055;SDS011;2043;52.184;8.690;2023-07-13T08:20:05;13.20;;;4.37;;
4055;SDS011;2043;52.184;8.690;2023-07-13T08:22:33;10.73;;;4.33;;
4055;SDS011;2043;52.184;8.690;2023-07-13T08:25:01;11.17;;;4.57;;
4055;SDS011;2043;52.184;8.690;2023-07-13T08:27:28;18.00;;;4.63;;
4055;SDS011;2043;52.184;8.690;2023-07-13T08:29:57;11.83;;;4.10;;
4055;SDS011;2043;52.184;8.690;2023-07-13T08:32:24;8.80;;;3.80;;
4055;SDS011;2043;52.184;8.690;2023-07-13T08:34:51;9.73;;;3.83;;
4055;SDS011;2043;52.184;8.690;2023-07-13T08:37:19;12.63;;;4.00;;
4055;SDS011;2043;52.184;8.690;2023-07-13T08:39:46;8.37;;;3.33;;
4055;SDS011;2043;52.184;8.690;2023-07-13T08:47:42;11.97;;;3.23;;
4055;SDS011;2043;52.184;8.690;2023-07-13T08:50:15;9.63;;;3.53;;
4055;SDS011;2043;52.184;8.690;2023-07-13T08:52:45;9.23;;;3.70;;
4055;SDS011;2043;52.184;8.690;2023-07-13T08:57:41;10.17;;;2.83;;
4055;SDS011;2043;52.184;8.690;2023-07-13T09:00:11;9.80;;;2.63;;
4055;SDS011;2043;52.184;8.690;2023-07-13T09:02:42;9.23;;;2.60;;
4055;SDS011;2043;52.184;8.690;2023-07-13T09:05:30;12.17;;;3.80;;
4055;SDS011;2043;52.184;8.690;2023-07-13T09:10:52;9.80;;;3.17;;
4055;SDS011;2043;52.184;8.690;2023-07-13T09:13:49;8.63;;;2.93;;
4055;SDS011;2043;52.184;8.690;2023-07-13T09:16:28;9.50;;;3.20;;
4055;SDS011;2043;52.184;8.690;2023-07-13T09:19:04;6.73;;;2.57;;
4055;SDS011;2043;52.184;8.690;2023-07-13T09:21:34;11.30;;;2.77;;
4055;SDS011;2043;52.184;8.690;2023-07-13T09:27:01;8.87;;;2.60;;
4055;SDS011;2043;52.184;8.690;2023-07-13T09:29:38;9.70;;;3.03;;
4055;SDS011;2043;52.184;8.690;2023-07-13T09:32:10;8.73;;;2.97;;
4055;SDS011;2043;52.184;8.690;2023-07-13T09:34:41;10.67;;;3.30;;
4055;SDS011;2043;52.184;8.690;2023-07-13T09:37:07;8.03;;;2.90;;
4055;SDS011;2043;52.184;8.690;2023-07-13T09:39:35;7.90;;;2.80;;
4055;SDS011;2043;52.184;8.690;2023-07-13T09:42:15;8.03;;;2.77;;
4055;SDS011;2043;52.184;8.690;2023-07-13T09:47:17;9.13;;;2.60;;
4055;SDS011;2043;52.184;8.690;2023-07-13T09:49:54;8.10;;;2.97;;
4055;SDS011;2043;52.184;8.690;2023-07-13T09:52:25;12.60;;;2.40;;
4055;SDS011;2043;52.184;8.690;2023-07-13T09:54:54;5.53;;;2.00;;
4055;SDS011;2043;52.184;8.690;2023-07-13T09:57:26;9.23;;;2.67;;
4055;SDS011;2043;52.184;8.690;2023-07-13T10:00:18;6.53;;;2.27;;
4055;SDS011;2043;52.184;8.690;2023-07-13T10:02:50;10.73;;;2.40;;
4055;SDS011;2043;52.184;8.690;2023-07-13T10:05:45;7.60;;;2.53;;
4055;SDS011;2043;52.184;8.690;2023-07-13T10:08:20;7.10;;;2.67;;
4055;SDS011;2043;52.184;8.690;2023-07-13T10:10:54;7.20;;;2.60;;
4055;SDS011;2043;52.184;8.690;2023-07-13T10:13:29;10.70;;;2.60;;
4055;SDS011;2043;52.184;8.690;2023-07-13T10:16:06;7.07;;;2.50;;
4055;SDS011;2043;52.184;8.690;2023-07-13T10:18:38;6.50;;;2.57;;
4055;SDS011;2043;52.184;8.690;2023-07-13T10:21:12;7.20;;;2.43;;
4055;SDS011;2043;52.184;8.690;2023-07-13T10:23:51;6.70;;;2.63;;
4055;SDS011;2043;52.184;8.690;2023-07-13T10:32:46;4.90;;;2.33;;
4055;SDS011;2043;52.184;8.690;2023-07-13T10:35:15;9.63;;;2.63;;
4055;SDS011;2043;52.184;8.690;2023-07-13T10:37:47;14.40;;;3.23;;
4055;SDS011;2043;52.184;8.690;2023-07-13T10:40:31;7.57;;;2.97;;
4055;SDS011;2043;52.184;8.690;2023-07-13T10:43:02;7.33;;;3.40;;
4055;SDS011;2043;52.184;8.690;2023-07-13T10:45:38;6.23;;;2.80;;
4055;SDS011;2043;52.184;8.690;2023-07-13T10:48:06;10.13;;;2.90;;
4055;SDS011;2043;52.184;8.690;2023-07-13T10:50:42;6.57;;;2.57;;
4055;SDS011;2043;52.184;8.690;2023-07-13T10:53:18;9.27;;;2.93;;
4055;SDS011;2043;52.184;8.690;2023-07-13T10:55:55;5.83;;;2.63;;
4055;SDS011;2043;52.184;8.690;2023-07-13T11:01:28;12.13;;;3.43;;
4055;SDS011;2043;52.184;8.690;2023-07-13T11:04:08;6.80;;;2.67;;
4055;SDS011;2043;52.184;8.690;2023-07-13T11:06:39;6.43;;;2.70;;
4055;SDS011;2043;52.184;8.690;2023-07-13T11:11:44;8.07;;;3.17;;
4055;SDS011;2043;52.184;8.690;2023-07-13T11:14:28;9.90;;;2.83;;
4055;SDS011;2043;52.184;8.690;2023-07-13T11:16:57;7.10;;;2.70;;
4055;SDS011;2043;52.184;8.690;2023-07-13T11:19:27;8.77;;;3.00;;
4055;SDS011;2043;52.184;8.690;2023-07-13T11:24:49;6.40;;;2.70;;
4055;SDS011;2043;52.184;8.690;2023-07-13T11:35:42;8.43;;;3.23;;
4055;SDS011;2043;52.184;8.690;2023-07-13T11:38:33;5.57;;;2.77;;
4055;SDS011;2043;52.184;8.690;2023-07-13T11:41:10;13.57;;;3.83;;
4055;SDS011;2043;52.184;8.690;2023-07-13T11:43:55;8.70;;;3.20;;
4055;SDS011;2043;52.184;8.690;2023-07-13T11:46:38;8.50;;;3.40;;
4055;SDS011;2043;52.184;8.690;2023-07-13T11:49:06;7.70;;;3.40;;
4055;SDS011;2043;52.184;8.690;2023-07-13T11:51:34;6.50;;;3.30;;
4055;SDS011;2043;52.184;8.690;2023-07-13T11:54:04;6.77;;;3.17;;
4055;SDS011;2043;52.184;8.690;2023-07-13T11:56:33;7.17;;;3.40;;
4055;SDS011;2043;52.184;8.690;2023-07-13T11:59:06;9.23;;;3.53;;
4055;SDS011;2043;52.184;8.690;2023-07-13T12:01:38;9.47;;;3.40;;
4055;SDS011;2043;52.184;8.690;2023-07-13T12:04:20;10.27;;;4.03;;
4055;SDS011;2043;52.184;8.690;2023-07-13T12:06:58;8.10;;;3.40;;
4055;SDS011;2043;52.184;8.690;2023-07-13T12:09:30;7.93;;;3.50;;
4055;SDS011;2043;52.184;8.690;2023-07-13T12:11:59;6.70;;;3.30;;
4055;SDS011;2043;52.184;8.690;2023-07-13T12:14:27;9.43;;;3.27;;
4055;SDS011;2043;52.184;8.690;2023-07-13T12:16:54;10.80;;;4.37;;
4055;SDS011;2043;52.184;8.690;2023-07-13T12:19:23;7.80;;;4.23;;
4055;SDS011;2043;52.184;8.690;2023-07-13T12:21:53;8.00;;;4.00;;
4055;SDS011;2043;52.184;8.690;2023-07-13T12:24:23;7.90;;;4.57;;
4055;SDS011;2043;52.184;8.690;2023-07-13T12:26:58;7.90;;;4.77;;
4055;SDS011;2043;52.184;8.690;2023-07-13T12:29:27;13.43;;;5.47;;
4055;SDS011;2043;52.184;8.690;2023-07-13T12:31:54;9.53;;;4.70;;
4055;SDS011;2043;52.184;8.690;2023-07-13T12:34:23;11.43;;;4.60;;
4055;SDS011;2043;52.184;8.690;2023-07-13T12:36:52;7.70;;;4.23;;
4055;SDS011;2043;52.184;8.690;2023-07-13T12:39:35;7.90;;;4.30;;
4055;SDS011;2043;52.184;8.690;2023-07-13T12:44:43;10.73;;;4.83;;
4055;SDS011;2043;52.184;8.690;2023-07-13T12:47:11;10.33;;;3.97;;
4055;SDS011;2043;52.184;8.690;2023-07-13T12:49:41;11.27;;;4.20;;
4055;SDS011;2043;52.184;8.690;2023-07-13T12:52:13;6.50;;;3.90;;
4055;SDS011;2043;52.184;8.690;2023-07-13T12:54:56;9.47;;;3.73;;
4055;SDS011;2043;52.184;8.690;2023-07-13T12:57:32;8.43;;;3.70;;
4055;SDS011;2043;52.184;8.690;2023-07-13T13:00:11;8.37;;;3.67;;
4055;SDS011;2043;52.184;8.690;2023-07-13T13:02:46;9.10;;;3.80;;
4055;SDS011;2043;52.184;8.690;2023-07-13T13:05:18;5.97;;;3.07;;
4055;SDS011;2043;52.184;8.690;2023-07-13T13:07:49;7.60;;;2.90;;
4055;SDS011;2043;52.184;8.690;2023-07-13T13:10:16;5.13;;;2.47;;
4055;SDS011;2043;52.184;8.690;2023-07-13T13:12:43;7.80;;;3.23;;
4055;SDS011;2043;52.184;8.690;2023-07-13T13:15:12;7.53;;;2.97;;
4055;SDS011;2043;52.184;8.690;2023-07-13T13:17:39;14.90;;;2.70;;
4055;SDS011;2043;52.184;8.690;2023-07-13T13:20:17;7.40;;;2.80;;
4055;SDS011;2043;52.184;8.690;2023-07-13T13:22:45;6.40;;;2.80;;
4055;SDS011;2043;52.184;8.690;2023-07-13T13:25:13;6.37;;;2.60;;
4055;SDS011;2043;52.184;8.690;2023-07-13T13:27:41;5.77;;;2.70;;
4055;SDS011;2043;52.184;8.690;2023-07-13T13:30:12;7.00;;;2.43;;
4055;SDS011;2043;52.184;8.690;2023-07-13T13:32:42;8.67;;;3.23;;
4055;SDS011;2043;52.184;8.690;2023-07-13T13:35:14;5.67;;;2.50;;
4055;SDS011;2043;52.184;8.690;2023-07-13T13:37:43;5.70;;;2.33;;
4055;SDS011;2043;52.184;8.690;2023-07-13T13:40:19;5.17;;;2.00;;
4055;SDS011;2043;52.184;8.690;2023-07-13T13:42:49;7.80;;;2.70;;
4055;SDS011;2043;52.184;8.690;2023-07-13T13:45:17;13.37;;;2.70;;
4055;SDS011;2043;52.184;8.690;2023-07-13T13:47:46;5.60;;;2.40;;
4055;SDS011;2043;52.184;8.690;2023-07-13T13:50:19;3.50;;;2.00;;
4055;SDS011;2043;52.184;8.690;2023-07-13T13:52:48;8.13;;;2.30;;
4055;SDS011;2043;52.184;8.690;2023-07-13T13:55:16;5.80;;;2.50;;
4055;SDS011;2043;52.184;8.690;2023-07-13T13:57:45;6.10;;;2.60;;
4055;SDS011;2043;52.184;8.690;2023-07-13T14:00:12;6.93;;;2.83;;
4055;SDS011;2043;52.184;8.690;2023-07-13T14:02:42;8.40;;;3.87;;
4055;SDS011;2043;52.184;8.690;2023-07-13T14:05:14;9.30;;;3.53;;
4055;SDS011;2043;52.184;8.690;2023-07-13T14:07:44;13.00;;;4.40;;
4055;SDS011;2043;52.184;8.690;2023-07-13T14:10:12;14.80;;;3.63;;
4055;SDS011;2043;52.184;8.690;2023-07-13T14:12:42;6.67;;;3.70;;
4055;SDS011;2043;52.184;8.690;2023-07-13T14:15:21;7.97;;;3.80;;
4055;SDS011;2043;52.184;8.690;2023-07-13T14:17:54;7.60;;;3.67;;
4055;SDS011;2043;52.184;8.690;2023-07-13T14:20:21;13.83;;;3.97;;
4055;SDS011;2043;52.184;8.690;2023-07-13T14:22:51;7.60;;;3.30;;
4055;SDS011;2043;52.184;8.690;2023-07-13T14:25:19;5.30;;;3.20;;
4055;SDS011;2043;52.184;8.690;2023-07-13T14:27:49;6.40;;;3.27;;
4055;SDS011;2043;52.184;8.690;2023-07-13T14:30:21;7.90;;;3.20;;
4055;SDS011;2043;52.184;8.690;2023-07-13T14:32:48;12.70;;;3.60;;
4055;SDS011;2043;52.184;8.690;2023-07-13T14:35:20;5.43;;;3.17;;
4055;SDS011;2043;52.184;8.690;2023-07-13T14:37:49;7.50;;;3.47;;
4055;SDS011;2043;52.184;8.690;2023-07-13T14:40:17;6.80;;;3.70;;
4055;SDS011;2043;52.184;8.690;2023-07-13T14:42:49;7.87;;;3.67;;
4055;SDS011;2043;52.184;8.690;2023-07-13T14:45:17;8.30;;;3.90;;
4055;SDS011;2043;52.184;8.690;2023-07-13T14:47:45;6.73;;;3.30;;
4055;SDS011;2043;52.184;8.690;2023-07-13T14:50:17;6.67;;;3.53;;
4055;SDS011;2043;52.184;8.690;2023-07-13T14:52:46;8.90;;;3.37;;
4055;SDS011;2043;52.184;8.690;2023-07-13T14:55:15;10.40;;;3.87;;
4055;SDS011;2043;52.184;8.690;2023-07-13T14:57:43;10.20;;;3.87;;
4055;SDS011;2043;52.184;8.690;2023-07-13T15:00:14;9.03;;;3.27;;
4055;SDS011;2043;52.184;8.690;2023-07-13T15:02:42;7.43;;;2.93;;
4055;SDS011;2043;52.184;8.690;2023-07-13T15:05:22;10.50;;;2.77;;
4055;SDS011;2043;52.184;8.690;2023-07-13T15:07:51;6.43;;;3.13;;
4055;SDS011;2043;52.184;8.690;2023-07-13T15:10:20;6.60;;;3.17;;
4055;SDS011;2043;52.184;8.690;2023-07-13T15:12:53;5.93;;;3.20;;
4055;SDS011;2043;52.184;8.690;2023-07-13T15:15:22;8.20;;;3.20;;
4055;SDS011;2043;52.184;8.690;2023-07-13T15:17:49;6.40;;;3.60;;
4055;SDS011;2043;52.184;8.690;2023-07-13T15:20:22;15.10;;;3.90;;
4055;SDS011;2043;52.184;8.690;2023-07-13T15:22:59;9.10;;;3.80;;
4055;SDS011;2043;52.184;8.690;2023-07-13T15:25:27;8.50;;;3.87;;
4055;SDS011;2043;52.184;8.690;2023-07-13T15:27:56;8.83;;;4.10;;
4055;SDS011;2043;52.184;8.690;2023-07-13T15:30:31;9.93;;;4.33;;
4055;SDS011;2043;52.184;8.690;2023-07-13T15:33:21;9.60;;;5.00;;
4055;SDS011;2043;52.184;8.690;2023-07-13T15:35:53;9.67;;;5.00;;
4055;SDS011;2043;52.184;8.690;2023-07-13T15:38:22;11.43;;;4.93;;
4055;SDS011;2043;52.184;8.690;2023-07-13T15:40:51;15.27;;;5.10;;
4055;SDS011;2043;52.184;8.690;2023-07-13T15:43:19;9.17;;;4.70;;
4055;SDS011;2043;52.184;8.690;2023-07-13T15:45:46;10.30;;;4.67;;
4055;SDS011;2043;52.184;8.690;2023-07-13T15:50:47;7.17;;;4.80;;
4055;SDS011;2043;52.184;8.690;2023-07-13T15:53:19;8.90;;;4.77;;
4055;SDS011;2043;52.184;8.690;2023-07-13T15:55:50;7.73;;;4.80;;
4055;SDS011;2043;52.184;8.690;2023-07-13T15:58:18;9.53;;;4.80;;
4055;SDS011;2043;52.184;8.690;2023-07-13T16:00:46;10.83;;;5.17;;
4055;SDS011;2043;52.184;8.690;2023-07-13T16:03:17;8.10;;;4.67;;
4055;SDS011;2043;52.184;8.690;2023-07-13T16:05:45;8.70;;;4.83;;
4055;SDS011;2043;52.184;8.690;2023-07-13T16:08:31;11.70;;;5.70;;
4055;SDS011;2043;52.184;8.690;2023-07-13T16:11:01;9.80;;;5.17;;
4055;SDS011;2043;52.184;8.690;2023-07-13T16:13:29;10.57;;;5.10;;